Time;durP1;ratioP1;P1;durP2;ratioP2;P2;SDS_P1;SDS_P2;PMS_P1;PMS_P2;Temp;Humidity;BMP_temperature;BMP_pressure;BME280_temperature;BME280_humidity;BME280_pressure;Samples;Min_cycle;Max_cycle;Signal;HPM_P1;HPM_P2
2022/01/16 00:04:06;;;;;;;43.65;13.68;;;;;;;0.75;100.00;101875.53;5071037;28;20035;-79
2022/01/16 00:04:54;;;;;;;39.05;12.60;;;;;;;0.68;100.00;101855.72;5068170;28;20456;-78
2022/01/16 00:07:19;;;;;;;35.20;11.70;;;;;;;0.77;100.00;101860.56;5086231;28;20064;-78
2022/01/16 00:09:48;;;;;;;38.63;13.85;;;;;;;0.79;100.00;101863.09;5069840;28;20881;-79
2022/01/16 00:12:14;;;;;;;37.35;14.23;;;;;;;0.90;100.00;101878.38;5069601;28;20393;-79
2022/01/16 00:14:39;;;;;;;38.13;15.73;;;;;;;0.92;100.00;101872.09;5052325;28;20050;-79
2022/01/16 00:17:05;;;;;;;40.43;15.37;;;;;;;1.10;100.00;101877.41;5071363;28;20103;-79
2022/01/16 00:19:30;;;;;;;39.80;13.00;;;;;;;1.03;100.00;101874.22;5057025;28;20751;-78
2022/01/16 00:21:57;;;;;;;47.00;16.17;;;;;;;0.99;100.00;101841.13;5071844;28;20075;-76
2022/01/16 00:24:22;;;;;;;36.53;14.70;;;;;;;1.10;100.00;101851.97;5060396;28;20033;-79
2022/01/16 00:26:48;;;;;;;40.80;15.53;;;;;;;1.10;100.00;101859.00;5077714;28;20035;-78
2022/01/16 00:29:13;;;;;;;47.03;17.33;;;;;;;1.14;100.00;101858.78;5069096;28;20294;-79
2022/01/16 00:31:40;;;;;;;42.05;16.98;;;;;;;1.15;100.00;101847.34;5068888;28;20032;-80
2022/01/16 00:34:07;;;;;;;55.38;19.35;;;;;;;1.27;100.00;101865.16;5085586;28;20021;-79
2022/01/16 00:36:32;;;;;;;48.17;17.63;;;;;;;1.39;100.00;101870.75;5086248;28;20169;-78
2022/01/16 00:38:58;;;;;;;62.63;19.48;;;;;;;1.37;100.00;101864.69;5085545;28;20119;-79
2022/01/16 00:41:24;;;;;;;45.33;18.10;;;;;;;1.46;100.00;101872.97;5070498;28;20039;-79
2022/01/16 00:43:51;;;;;;;52.08;19.75;;;;;;;1.35;100.00;101858.66;5051977;28;20035;-80
2022/01/16 00:46:17;;;;;;;49.72;19.17;;;;;;;1.40;100.00;101852.22;5069743;28;20047;-78
2022/01/16 00:48:43;;;;;;;46.97;19.00;;;;;;;1.38;100.00;101837.44;5068526;28;20031;-79
2022/01/16 00:51:09;;;;;;;43.43;17.93;;;;;;;1.36;100.00;101827.00;5069005;28;20040;-80
2022/01/16 00:53:34;;;;;;;53.70;19.92;;;;;;;1.22;100.00;101796.13;5070503;28;20590;-80
2022/01/16 00:56:00;;;;;;;63.28;21.65;;;;;;;1.20;100.00;101797.97;5069006;28;20111;-80
2022/01/16 00:58:25;;;;;;;49.72;20.90;;;;;;;1.24;100.00;101778.50;5086368;28;20039;-78
2022/01/16 01:00:51;;;;;;;58.13;21.90;;;;;;;1.16;100.00;101772.75;5087489;28;20505;-76
2022/01/16 01:03:16;;;;;;;60.00;21.97;;;;;;;1.18;100.00;101776.16;5087555;28;20033;-77
2022/01/16 01:05:42;;;;;;;57.80;20.73;;;;;;;1.12;100.00;101752.78;5073572;28;20040;-79
2022/01/16 01:08:08;;;;;;;50.35;20.02;;;;;;;1.03;100.00;101759.38;5070537;28;20215;-78
2022/01/16 01:10:37;;;;;;;57.33;20.75;;;;;;;0.94;100.00;101751.09;5068753;28;20033;-79
2022/01/16 01:13:55;;;;;;;56.80;21.58;;;;;;;0.97;100.00;101769.34;5078033;28;20048;-80
2022/01/16 01:16:03;;;;;;;60.70;19.40;;;;;;;1.00;100.00;101774.44;5069994;28;20474;-79
2022/01/16 01:18:33;;;;;;;64.07;23.27;;;;;;;0.91;100.00;101780.13;5072542;28;20036;-78
2022/01/16 01:21:02;;;;;;;62.20;21.75;;;;;;;0.90;100.00;101773.19;5072015;28;20033;-78
2022/01/16 01:23:27;;;;;;;68.72;23.20;;;;;;;0.84;100.00;101772.56;5089161;28;20039;-79
2022/01/16 01:25:52;;;;;;;66.20;24.60;;;;;;;0.86;100.00;101766.38;5069473;28;20576;-79
2022/01/16 01:28:18;;;;;;;56.83;21.67;;;;;;;0.87;100.00;101778.56;5089071;28;20336;-78
2022/01/16 01:30:44;;;;;;;54.10;21.85;;;;;;;0.84;100.00;101774.31;5071995;28;20648;-80
2022/01/16 01:33:13;;;;;;;59.35;20.55;;;;;;;0.83;100.00;101773.47;5072586;28;20040;-78
2022/01/16 01:35:39;;;;;;;63.63;22.85;;;;;;;0.98;100.00;101781.53;5055005;28;20123;-79
2022/01/16 01:38:06;;;;;;;;;;;;;;;1.00;100.00;101792.84;5073002;28;20016;-79
2022/01/16 01:40:32;;;;;;;50.53;21.00;;;;;;;0.96;100.00;101791.28;5082376;28;19958;-78
2022/01/16 01:51:13;;;;;;;65.30;24.20;;;;;;;0.86;100.00;101782.16;5065460;28;20177;-79
2022/01/16 01:53:39;;;;;;;64.40;23.30;;;;;;;0.84;100.00;101738.41;5070996;28;20028;-77
2022/01/16 01:56:07;;;;;;;73.55;24.50;;;;;;;0.82;100.00;101690.28;5088862;28;20042;-80
2022/01/16 01:58:33;;;;;;;61.97;25.67;;;;;;;0.77;100.00;101679.16;5088231;28;20036;-79
2022/01/16 02:00:58;;;;;;;55.53;21.65;;;;;;;0.76;100.00;101677.44;5088389;28;20051;-80
2022/01/16 02:05:49;;;;;;;66.22;26.48;;;;;;;0.73;100.00;101671.50;5069238;28;20032;-79
2022/01/16 02:08:15;;;;;;;63.37;25.87;;;;;;;0.68;100.00;101692.75;5087663;28;20024;-79
2022/01/16 02:10:42;;;;;;;71.15;26.42;;;;;;;0.69;100.00;101714.63;5071338;28;20305;-78
2022/01/16 02:13:11;;;;;;;66.78;25.42;;;;;;;0.62;100.00;101712.28;5053534;28;20035;-78
2022/01/16 02:31:42;;;;;;;73.93;25.95;;;;;;;0.52;100.00;101708.41;5070410;28;20033;-78
2022/01/16 02:36:56;;;;;;;74.90;27.02;;;;;;;0.45;100.00;101720.16;5070837;28;20040;-76
2022/01/16 02:39:26;;;;;;;66.40;23.75;;;;;;;0.45;100.00;101724.56;5072433;28;20127;-76
2022/01/16 02:41:56;;;;;;;71.97;24.95;;;;;;;0.52;100.00;101729.44;5071432;28;20075;-78
2022/01/16 02:44:30;;;;;;;64.38;25.08;;;;;;;0.48;100.00;101724.41;5070809;28;20139;-79
2022/01/16 02:46:58;;;;;;;65.55;24.40;;;;;;;0.58;100.00;101726.50;5087994;28;20568;-77
2022/01/16 02:49:29;;;;;;;69.60;27.80;;;;;;;0.57;100.00;101718.69;5070739;28;20447;-80
2022/01/16 02:52:01;;;;;;;76.13;28.17;;;;;;;0.52;100.00;101699.69;5088315;28;20072;-78
2022/01/16 02:54:28;;;;;;;61.03;24.52;;;;;;;0.66;100.00;101714.78;5070797;28;20531;-77
2022/01/16 02:56:54;;;;;;;66.88;27.10;;;;;;;0.59;100.00;101696.69;5071270;28;20159;-80
2022/01/16 02:59:21;;;;;;;69.72;26.58;;;;;;;0.66;100.00;101707.75;5086981;28;20036;-77
2022/01/16 03:01:48;;;;;;;64.10;24.98;;;;;;;0.61;100.00;101704.50;5072499;28;20402;-78
2022/01/16 03:04:16;;;;;;;70.03;25.55;;;;;;;0.65;100.00;101711.28;5070064;28;20467;-78
2022/01/16 03:06:41;;;;;;;63.35;25.02;;;;;;;0.70;100.00;101700.53;5087954;28;20139;-77
2022/01/16 03:09:07;;;;;;;68.47;25.60;;;;;;;0.68;100.00;101686.63;5072190;28;20119;-78
2022/01/16 03:11:40;;;;;;;68.70;23.80;;;;;;;0.78;100.00;101701.03;5071322;28;20036;-78
2022/01/16 03:14:10;;;;;;;65.75;24.48;;;;;;;0.71;100.00;101689.13;5062173;28;20048;-78
2022/01/16 03:16:36;;;;;;;61.47;25.65;;;;;;;0.79;100.00;101690.41;5088134;28;20101;-78
2022/01/16 03:21:57;;;;;;;61.13;26.00;;;;;;;0.90;100.00;101679.38;5070830;28;20063;-79
2022/01/16 03:24:24;;;;;;;63.58;24.45;;;;;;;1.00;100.00;101685.88;5071694;28;20041;-79
2022/01/16 03:26:58;;;;;;;65.13;25.92;;;;;;;1.04;100.00;101687.41;5067032;28;20064;-79
2022/01/16 03:29:25;;;;;;;70.00;25.90;;;;;;;1.07;100.00;101680.31;5086612;28;20102;-79
2022/01/16 03:31:50;;;;;;;71.10;25.45;;;;;;;1.15;100.00;101673.72;5086823;28;20035;-77
2022/01/16 03:34:16;;;;;;;62.83;27.75;;;;;;;1.07;100.00;101651.38;5087123;28;20040;-79
2022/01/16 03:36:42;;;;;;;72.90;27.17;;;;;;;1.08;100.00;101661.81;5084527;28;20037;-78
2022/01/16 03:39:07;;;;;;;73.72;28.13;;;;;;;1.13;100.00;101661.59;5067113;28;20013;-77
2022/01/16 03:41:34;;;;;;;64.30;25.67;;;;;;;1.20;100.00;101660.34;5067746;28;20040;-79
2022/01/16 03:44:02;;;;;;;71.25;26.48;;;;;;;1.18;100.00;101652.53;5067385;28;20286;-78
2022/01/16 03:46:34;;;;;;;73.50;28.35;;;;;;;1.18;100.00;101636.72;5084943;28;20024;-78
2022/01/16 03:49:25;;;;;;;79.13;29.80;;;;;;;1.16;100.00;101617.56;5084476;28;20047;-78
2022/01/16 03:51:52;;;;;;;83.50;31.08;;;;;;;1.16;100.00;101607.03;5063745;28;20492;-78
2022/01/16 03:54:20;;;;;;;73.43;29.27;;;;;;;1.19;100.00;101611.28;5066923;28;20020;-78
2022/01/16 03:56:46;;;;;;;79.40;30.48;;;;;;;1.06;100.00;101584.78;5068970;28;20086;-78
2022/01/16 03:59:12;;;;;;;88.45;30.92;;;;;;;1.12;100.00;101600.22;5084434;28;20020;-78
2022/01/16 04:01:38;;;;;;;78.40;32.47;;;;;;;1.08;100.00;101592.56;5067542;28;20497;-79
2022/01/16 04:04:04;;;;;;;91.05;30.88;;;;;;;1.15;100.00;101594.81;5083871;28;20032;-78
2022/01/16 04:06:30;;;;;;;94.28;31.63;;;;;;;1.09;100.00;101586.41;5050980;28;20049;-78
2022/01/16 04:08:56;;;;;;;86.10;32.83;;;;;;;1.12;100.00;101589.69;5067445;28;20016;-80
2022/01/16 04:11:23;;;;;;;83.25;31.55;;;;;;;1.16;100.00;101591.25;5084209;28;20053;-78
2022/01/16 04:13:52;;;;;;;93.82;33.65;;;;;;;1.11;100.00;101598.53;5066702;28;20105;-78
2022/01/16 04:16:19;;;;;;;95.80;34.80;;;;;;;1.17;100.00;101592.09;5067337;28;20052;-78
2022/01/16 04:18:49;;;;;;;98.15;35.88;;;;;;;1.09;100.00;101591.66;5067142;28;20035;-78
2022/01/16 04:21:14;;;;;;;89.00;31.90;;;;;;;1.16;100.00;101587.78;5084243;28;20077;-78
2022/01/16 04:23:40;;;;;;;102.15;33.22;;;;;;;1.17;100.00;101587.69;5082651;28;20900;-78
2022/01/16 04:26:05;;;;;;;92.10;32.63;;;;;;;1.26;100.00;101608.25;5083601;28;20036;-79
2022/01/16 04:28:30;;;;;;;87.03;30.33;;;;;;;1.13;100.00;101582.69;5050934;28;20404;-79
2022/01/16 04:30:56;;;;;;;97.30;33.80;;;;;;;1.19;100.00;101592.84;5084423;28;20516;-79
2022/01/16 04:33:21;;;;;;;112.53;35.93;;;;;;;1.17;100.00;101595.59;5067529;28;20351;-78
2022/01/16 04:35:46;;;;;;;93.15;36.03;;;;;;;1.30;100.00;101601.03;5083680;28;20056;-79
2022/01/16 04:38:12;;;;;;;94.80;34.13;;;;;;;1.27;100.00;101595.94;5083867;28;20386;-78
2022/01/16 04:40:44;;;;;;;99.97;33.03;;;;;;;1.24;100.00;101596.97;5068415;28;20039;-79
2022/01/16 04:45:58;;;;;;;135.77;37.28;;;;;;;1.25;100.00;101600.44;5066868;28;20032;-78
2022/01/16 04:48:24;;;;;;;88.18;31.33;;;;;;;1.28;100.00;101602.91;5084058;28;20471;-77
2022/01/16 04:50:49;;;;;;;116.32;35.83;;;;;;;1.28;100.00;101613.41;5066751;28;20037;-77
2022/01/16 04:53:15;;;;;;;109.67;35.90;;;;;;;1.18;100.00;101605.16;5068127;28;20064;-79
2022/01/16 04:55:40;;;;;;;98.57;34.85;;;;;;;1.22;100.00;101604.09;5083249;28;20032;-78
2022/01/16 04:58:05;;;;;;;133.53;38.03;;;;;;;1.37;100.00;101614.72;5066721;28;20017;-79
2022/01/16 05:00:31;;;;;;;93.50;31.33;;;;;;;1.38;100.00;101609.38;5066407;28;20340;-78
2022/01/16 05:02:56;;;;;;;109.63;35.20;;;;;;;1.37;100.00;101604.19;5066763;28;20119;-78
2022/01/16 05:05:21;;;;;;;106.50;34.60;;;;;;;1.32;100.00;101607.06;5082921;28;20031;-78
2022/01/16 05:07:47;;;;;;;103.73;32.00;;;;;;;1.41;100.00;101611.00;5083079;28;20481;-77
2022/01/16 05:10:13;;;;;;;106.87;34.37;;;;;;;1.42;100.00;101602.16;5066354;28;20314;-78
2022/01/16 05:12:41;;;;;;;109.90;34.13;;;;;;;1.36;100.00;101602.47;5082601;28;20431;-78
2022/01/16 05:17:52;;;;;;;115.18;33.65;;;;;;;1.44;100.00;101589.78;5067290;28;20036;-78
2022/01/16 05:20:18;;;;;;;92.07;29.80;;;;;;;1.50;100.00;101578.94;5082483;28;20029;-78
2022/01/16 05:22:43;;;;;;;104.20;32.22;;;;;;;1.48;100.00;101583.41;5078532;28;20372;-78
2022/01/16 05:25:11;;;;;;;107.30;34.87;;;;;;;1.54;100.00;101582.22;5082243;28;20044;-78
2022/01/16 05:27:37;;;;;;;116.90;33.80;;;;;;;1.54;100.00;101584.84;5076922;28;20477;-78
2022/01/16 05:30:03;;;;;;;114.80;32.70;;;;;;;1.63;100.00;101579.94;5072194;28;20123;-78
2022/01/16 05:32:28;;;;;;;105.13;33.47;;;;;;;1.47;100.00;101553.63;5062849;28;20035;-78
2022/01/16 05:34:54;;;;;;;122.53;35.17;;;;;;;1.52;100.00;101553.34;5069270;28;20043;-78
2022/01/16 05:37:19;;;;;;;125.10;37.73;;;;;;;1.60;100.00;101559.06;5079483;28;20299;-78
2022/01/16 05:39:47;;;;;;;121.22;36.50;;;;;;;1.61;100.00;101560.75;5071942;28;20426;-78
2022/01/16 05:42:13;;;;;;;118.55;35.75;;;;;;;1.60;100.00;101551.16;5082461;28;20047;-77
2022/01/16 05:44:39;;;;;;;126.38;35.45;;;;;;;1.66;100.00;101558.72;5066202;28;20079;-78
2022/01/16 05:47:05;;;;;;;117.60;37.47;;;;;;;1.68;100.00;101564.72;5082479;28;20124;-79
2022/01/16 05:49:30;;;;;;;121.13;36.78;;;;;;;1.71;100.00;101565.50;5065365;28;20051;-78
2022/01/16 05:51:56;;;;;;;119.38;36.05;;;;;;;1.75;100.00;101567.03;5082530;28;20048;-78
2022/01/16 05:54:21;;;;;;;134.13;35.87;;;;;;;1.69;100.00;101558.53;5081400;28;20036;-78
2022/01/16 05:56:47;;;;;;;126.00;36.47;;;;;;;1.68;100.00;101561.25;5082316;28;20344;-78
2022/01/16 05:59:12;;;;;;;138.10;40.33;;;;;;;1.72;100.00;101559.31;5081933;28;20285;-78
2022/01/16 06:01:37;;;;;;;124.27;35.03;;;;;;;1.73;100.00;101553.94;5083350;28;20123;-77
2022/01/16 06:04:03;;;;;;;117.65;38.40;;;;;;;1.61;100.00;101523.03;5051787;28;20017;-79
2022/01/16 06:06:28;;;;;;;118.17;37.57;;;;;;;1.71;100.00;101537.41;5085991;28;20044;-78
2022/01/16 06:08:54;;;;;;;126.75;36.85;;;;;;;1.72;100.00;101541.72;5086263;28;20286;-78
2022/01/16 06:11:19;;;;;;;111.40;36.27;;;;;;;1.68;100.00;101530.50;5069733;28;20059;-78
2022/01/16 06:13:45;;;;;;;116.55;35.40;;;;;;;1.80;100.00;101543.91;5069319;28;20810;-78
2022/01/16 06:16:10;;;;;;;112.53;35.45;;;;;;;1.74;100.00;101524.06;5086148;28;20028;-78
2022/01/16 06:18:35;;;;;;;123.87;36.97;;;;;;;1.66;100.00;101523.63;5069563;28;20529;-78
2022/01/16 06:21:01;;;;;;;106.37;34.47;;;;;;;1.64;100.00;101507.09;5069118;28;20287;-78
2022/01/16 06:23:26;;;;;;;106.43;34.90;;;;;;;1.72;100.00;101511.94;5085763;28;20036;-79
2022/01/16 06:25:54;;;;;;;93.20;30.85;;;;;;;1.68;100.00;101498.06;5085323;28;20060;-78
2022/01/16 06:28:24;;;;;;;100.07;35.78;;;;;;;1.68;100.00;101479.66;5068833;28;20049;-78
2022/01/16 06:30:50;;;;;;;98.88;34.33;;;;;;;1.65;100.00;101474.56;5068914;28;20036;-77
2022/01/16 06:33:17;;;;;;;105.18;33.47;;;;;;;1.78;100.00;101477.31;5068635;28;20417;-78
2022/01/16 06:35:42;;;;;;;;;;;;;;;1.74;100.00;101468.78;5052179;28;20040;-78
2022/01/16 06:38:08;;;;;;;100.45;33.08;;;;;;;1.60;100.00;101448.50;5077514;28;19923;-78
2022/01/16 06:40:33;;;;;;;88.88;31.80;;;;;;;1.69;100.00;101455.88;5070073;28;20033;-78
2022/01/16 06:42:59;;;;;;;93.67;33.47;;;;;;;1.62;100.00;101449.25;5084571;28;20081;-77
2022/01/16 06:45:24;;;;;;;85.70;31.77;;;;;;;1.69;100.00;101449.78;5068096;28;20362;-78
2022/01/16 06:47:51;;;;;;;100.90;34.47;;;;;;;1.59;100.00;101425.75;5068568;28;20035;-78
2022/01/16 06:50:17;;;;;;;87.80;30.98;;;;;;;1.70;100.00;101433.03;5085216;28;20097;-79
2022/01/16 06:52:42;;;;;;;;;;;;;;;1.72;100.00;101425.88;5085723;28;20401;-78
2022/01/16 06:55:08;;;;;;;98.70;33.00;;;;;;;1.73;100.00;101434.63;5076679;28;19908;-78
2022/01/16 06:57:34;;;;;;;98.97;32.75;;;;;;;1.71;100.00;101431.22;5069998;28;20037;-79
2022/01/16 06:59:59;;;;;;;91.18;30.90;;;;;;;1.77;100.00;101423.00;5068666;28;20036;-77
2022/01/16 07:02:25;;;;;;;89.67;30.80;;;;;;;1.78;100.00;101420.28;5068403;28;20029;-78
2022/01/16 07:04:50;;;;;;;81.80;29.47;;;;;;;1.71;100.00;101404.91;5069179;28;20700;-79
2022/01/16 07:07:16;;;;;;;91.68;30.40;;;;;;;1.75;100.00;101419.59;5085260;28;20047;-80
2022/01/16 07:09:41;;;;;;;80.80;31.03;;;;;;;1.82;100.00;101427.03;5084832;28;20501;-79
2022/01/16 07:12:07;;;;;;;86.87;30.13;;;;;;;1.78;100.00;101412.38;5084916;28;20373;-79
2022/01/16 07:14:32;;;;;;;86.00;30.25;;;;;;;1.71;100.00;101412.81;5067826;28;20111;-78
2022/01/16 07:16:58;;;;;;;79.95;28.92;;;;;;;1.78;100.00;101422.03;5068091;28;20025;-79
2022/01/16 07:19:23;;;;;;;79.67;28.93;;;;;;;1.89;100.00;101438.91;5069429;28;20032;-78
2022/01/16 07:21:49;;;;;;;78.25;29.70;;;;;;;1.95;100.00;101432.44;5067271;28;20481;-78
2022/01/16 07:24:16;;;;;;;88.65;31.13;;;;;;;1.85;100.00;101420.75;5081427;28;20029;-80
2022/01/16 07:26:45;;;;;;;91.15;31.33;;;;;;;1.84;100.00;101421.69;5069949;28;20663;-79
2022/01/16 07:29:11;;;;;;;81.07;29.08;;;;;;;1.90;100.00;101422.19;5067539;28;20033;-79
2022/01/16 07:31:39;;;;;;;92.57;31.70;;;;;;;1.96;100.00;101420.97;5067460;28;20037;-77
2022/01/16 07:34:09;;;;;;;80.95;27.52;;;;;;;1.93;100.00;101408.00;5066937;28;20033;-78
2022/01/16 07:36:35;;;;;;;86.72;31.40;;;;;;;1.92;100.00;101413.34;5084799;28;20040;-78
2022/01/16 07:39:01;;;;;;;84.53;28.48;;;;;;;1.91;100.00;101415.13;5069601;28;20119;-80
2022/01/16 07:41:26;;;;;;;79.05;30.65;;;;;;;1.95;100.00;101421.91;5069642;28;20119;-79
2022/01/16 07:43:52;;;;;;;93.28;32.42;;;;;;;1.88;100.00;101394.25;5058258;28;20036;-78
2022/01/16 07:46:17;;;;;;;90.40;31.33;;;;;;;1.90;100.00;101418.72;5069742;28;20103;-78
2022/01/16 07:48:43;;;;;;;83.82;29.55;;;;;;;1.90;100.00;101413.44;5067450;28;20036;-79
2022/01/16 07:51:08;;;;;;;102.47;33.95;;;;;;;1.95;100.00;101424.56;5085218;28;20082;-79
2022/01/16 07:53:34;;;;;;;96.17;31.23;;;;;;;1.95;100.00;101415.81;5084781;28;20020;-80
2022/01/16 07:55:59;;;;;;;95.65;29.83;;;;;;;1.99;100.00;101407.63;5051132;28;20032;-77
2022/01/16 07:58:25;;;;;;;88.82;31.98;;;;;;;1.83;100.00;101391.06;5084364;28;20028;-78
2022/01/16 08:00:50;;;;;;;103.50;35.33;;;;;;;1.85;100.00;101410.22;5084868;28;20064;-78
2022/01/16 08:03:15;;;;;;;82.97;31.03;;;;;;;1.84;100.00;101401.47;5084690;28;20109;-80
2022/01/16 08:05:41;;;;;;;102.40;35.43;;;;;;;1.90;100.00;101413.44;5067660;28;20290;-79
2022/01/16 08:08:06;;;;;;;90.00;29.50;;;;;;;1.94;100.00;101417.56;5084249;28;20028;-78
2022/01/16 08:10:32;;;;;;;92.33;32.20;;;;;;;1.98;100.00;101420.88;5067422;28;20378;-78
2022/01/16 08:12:58;;;;;;;85.18;30.27;;;;;;;1.93;100.00;101417.69;5083939;28;20290;-78
2022/01/16 08:15:24;;;;;;;100.15;34.28;;;;;;;1.98;100.00;101419.09;5067973;28;20085;-78
2022/01/16 08:17:49;;;;;;;96.00;32.92;;;;;;;1.93;100.00;101408.00;5067339;28;20060;-78
2022/01/16 08:20:15;;;;;;;94.13;31.80;;;;;;;1.95;100.00;101424.56;5067756;28;20102;-79
2022/01/16 08:22:40;;;;;;;106.72;34.95;;;;;;;1.92;100.00;101419.47;5083641;28;20405;-77
2022/01/16 08:25:06;;;;;;;98.10;29.65;;;;;;;1.94;100.00;101419.38;5082973;28;20504;-79
2022/01/16 08:27:32;;;;;;;95.55;31.40;;;;;;;1.98;100.00;101420.88;5067998;28;20028;-77
2022/01/16 08:29:58;;;;;;;99.75;34.60;;;;;;;2.10;100.00;101423.63;5066800;28;20064;-78
2022/01/16 08:32:23;;;;;;;97.10;32.83;;;;;;;2.06;100.00;101423.91;5066779;28;20109;-78
2022/01/16 08:34:49;;;;;;;90.70;30.23;;;;;;;2.04;100.00;101421.38;5067374;28;20513;-79
2022/01/16 08:37:14;;;;;;;89.83;32.07;;;;;;;1.97;100.00;101414.78;5082140;28;20056;-78
2022/01/16 08:39:40;;;;;;;89.43;30.83;;;;;;;1.98;100.00;101419.09;5075781;28;21135;-78
2022/01/16 08:42:05;;;;;;;96.90;32.60;;;;;;;1.98;100.00;101408.56;5084122;28;20048;-79
2022/01/16 08:44:32;;;;;;;93.82;28.02;;;;;;;2.00;100.00;101419.84;5066569;28;20047;-78
2022/01/16 08:46:58;;;;;;;104.40;28.63;;;;;;;1.97;100.00;101404.25;5049999;28;20035;-78
2022/01/16 08:49:23;;;;;;;92.75;28.92;;;;;;;1.90;100.00;101402.91;5082854;28;20493;-78
2022/01/16 08:51:49;;;;;;;100.65;28.70;;;;;;;1.90;100.00;101418.72;5065833;28;20040;-78
2022/01/16 08:54:14;;;;;;;94.55;26.65;;;;;;;1.88;100.00;101404.78;5082724;28;20066;-78
2022/01/16 08:56:40;;;;;;;99.07;31.03;;;;;;;1.93;100.00;101418.53;5083075;28;20565;-77
2022/01/16 08:59:05;;;;;;;94.57;29.80;;;;;;;1.84;100.00;101412.00;5074691;28;20036;-78
2022/01/16 09:01:31;;;;;;;112.87;33.23;;;;;;;1.86;100.00;101419.81;5065959;28;20210;-78
2022/01/16 09:03:56;;;;;;;103.20;32.28;;;;;;;1.75;100.00;101409.91;5082868;28;20043;-79
2022/01/16 09:06:21;;;;;;;114.10;31.77;;;;;;;1.80;100.00;101436.84;5083022;28;20438;-78
2022/01/16 09:08:47;;;;;;;123.57;34.90;;;;;;;1.81;100.00;101429.78;5067645;28;20366;-78
2022/01/16 09:11:12;;;;;;;113.67;32.97;;;;;;;1.79;100.00;101426.38;5083047;28;20024;-78
2022/01/16 09:13:40;;;;;;;112.90;33.30;;;;;;;1.73;100.00;101417.03;5082605;28;20032;-78
2022/01/16 09:16:07;;;;;;;124.30;39.13;;;;;;;1.77;100.00;101426.47;5082871;28;20436;-79
2022/01/16 09:18:33;;;;;;;128.65;38.83;;;;;;;1.79;100.00;101423.75;5082688;28;20052;-77
2022/01/16 09:21:01;;;;;;;133.75;36.08;;;;;;;1.75;100.00;101423.06;5049291;28;20033;-78
2022/01/16 09:23:27;;;;;;;131.63;37.08;;;;;;;1.77;100.00;101420.34;5067842;28;20398;-78
2022/01/16 09:25:52;;;;;;;;;;;;;;;1.79;100.00;101426.38;5066273;28;20047;-78
2022/01/16 09:28:18;;;;;;;125.18;35.75;;;;;;;1.68;100.00;101427.00;5066019;28;19912;-79
2022/01/16 09:30:43;;;;;;;128.40;36.30;;;;;;;1.55;100.00;101412.88;5082831;28;20032;-78
2022/01/16 09:33:09;;;;;;;128.00;38.85;;;;;;;1.64;100.00;101418.44;5082945;28;20032;-78
2022/01/16 09:35:35;;;;;;;137.73;39.03;;;;;;;1.69;100.00;101426.06;5059837;23;20041;-78
2022/01/16 09:38:02;;;;;;;136.05;36.17;;;;;;;1.66;100.00;101427.09;5035516;28;20082;-80
2022/01/16 09:40:27;;;;;;;123.90;37.10;;;;;;;1.68;100.00;101425.19;5041114;28;20049;-78
2022/01/16 09:42:54;;;;;;;108.28;32.97;;;;;;;1.66;100.00;101428.88;5032295;28;20037;-78
2022/01/16 09:45:20;;;;;;;124.85;36.88;;;;;;;1.57;100.00;101417.09;5022926;28;20027;-78
2022/01/16 09:47:47;;;;;;;114.95;34.20;;;;;;;1.67;100.00;101433.22;5018504;28;20116;-79
2022/01/16 09:50:25;;;;;;;124.95;35.10;;;;;;;1.58;100.00;101421.41;5042494;28;20064;-78
2022/01/16 09:52:52;;;;;;;111.13;33.03;;;;;;;1.74;100.00;101431.91;5030838;28;20098;-79
2022/01/16 09:55:18;;;;;;;122.05;36.40;;;;;;;1.71;100.00;101431.22;5028766;28;20124;-78
2022/01/16 09:57:45;;;;;;;133.00;39.65;;;;;;;1.72;100.00;101432.94;5035124;28;20470;-78
2022/01/16 10:00:13;;;;;;;124.47;36.72;;;;;;;1.80;100.00;101434.22;5029258;28;20033;-78
2022/01/16 10:02:45;;;;;;;128.85;37.70;;;;;;;1.78;100.00;101425.53;5046396;28;20036;-78
2022/01/16 10:05:20;;;;;;;115.78;35.00;;;;;;;1.75;100.00;101432.75;5041721;28;20033;-78
2022/01/16 10:07:47;;;;;;;115.40;33.27;;;;;;;1.83;100.00;101438.44;5049004;28;20048;-78
2022/01/16 10:10:13;;;;;;;112.35;33.60;;;;;;;1.82;100.00;101434.94;5033083;28;20037;-78
2022/01/16 10:12:51;;;;;;;111.60;33.58;;;;;;;1.87;100.00;101426.78;5045569;28;20485;-78
2022/01/16 10:15:19;;;;;;;110.07;33.70;;;;;;;1.86;100.00;101420.66;5023091;28;20042;-78
2022/01/16 10:17:48;;;;;;;96.72;30.98;;;;;;;1.85;100.00;101431.28;5042341;28;20048;-80
2022/01/16 10:20:16;;;;;;;105.25;31.23;;;;;;;1.77;100.00;101417.72;5029707;28;20041;-78
2022/01/16 10:22:54;;;;;;;121.82;40.53;;;;;;;1.81;100.00;101413.97;5047056;28;20099;-78
2022/01/16 10:25:43;;;;;;;110.85;33.15;;;;;;;1.82;100.00;101415.66;5040140;28;20041;-78
2022/01/16 10:28:13;;;;;;;108.63;31.88;;;;;;;1.82;100.00;101431.47;5042089;28;20116;-77
2022/01/16 10:30:43;;;;;;;110.35;32.60;;;;;;;1.87;100.00;101424.13;5049637;28;20091;-78
2022/01/16 10:33:21;;;;;;;100.75;32.08;;;;;;;1.92;100.00;101431.78;5057771;28;20029;-78
2022/01/16 10:35:48;;;;;;;105.45;31.40;;;;;;;1.89;100.00;101431.00;5030260;28;20036;-78
2022/01/16 10:38:28;;;;;;;108.88;30.10;;;;;;;1.91;100.00;101425.66;5020833;28;20022;-78
2022/01/16 10:40:57;;;;;;;105.38;29.77;;;;;;;1.88;100.00;101425.84;5042061;28;20056;-79
2022/01/16 10:43:40;;;;;;;98.53;30.33;;;;;;;1.90;100.00;101418.72;5041494;28;20407;-78
2022/01/16 10:46:07;;;;;;;118.63;34.08;;;;;;;1.96;100.00;101423.59;5024120;28;20517;-79
2022/01/16 10:48:32;;;;;;;99.53;29.23;;;;;;;1.93;100.00;101415.88;5052103;28;20025;-79
2022/01/16 10:50:58;;;;;;;111.03;29.83;;;;;;;1.90;100.00;101405.53;5066735;28;20059;-79
2022/01/16 10:53:27;;;;;;;93.07;30.27;;;;;;;1.89;100.00;101406.47;5025355;28;20715;-78
2022/01/16 10:55:55;;;;;;;99.25;28.98;;;;;;;1.99;100.00;101412.03;5043220;28;20043;-79
2022/01/16 10:58:22;;;;;;;174.20;43.28;;;;;;;2.35;100.00;101418.69;5034496;28;20094;-80
2022/01/16 11:00:54;;;;;;;179.82;41.75;;;;;;;2.49;100.00;101427.44;5032310;28;20035;-79
2022/01/16 11:03:22;;;;;;;93.75;25.23;;;;;;;2.25;100.00;101403.44;5051414;28;20060;-78
2022/01/16 11:05:49;;;;;;;92.80;29.35;;;;;;;2.18;100.00;101399.47;5058161;28;20546;-79
2022/01/16 11:08:17;;;;;;;80.95;25.02;;;;;;;2.04;100.00;101389.78;5061773;28;20784;-80
2022/01/16 11:10:46;;;;;;;86.72;27.00;;;;;;;2.12;100.00;101399.84;5048831;28;20052;-79
2022/01/16 11:13:14;;;;;;;93.72;29.10;;;;;;;2.15;100.00;101397.00;5046510;28;20083;-79
2022/01/16 11:15:44;;;;;;;85.75;28.83;;;;;;;2.04;100.00;101392.41;5053383;28;20036;-79
2022/01/16 11:18:11;;;;;;;78.88;27.77;;;;;;;2.01;100.00;101391.72;5051607;28;20037;-78
2022/01/16 11:20:39;;;;;;;81.97;25.17;;;;;;;2.03;100.00;101393.31;5032997;28;20099;-80
2022/01/16 11:23:27;;;;;;;106.30;28.80;;;;;;;2.07;100.00;101402.75;5023976;28;20120;-79
2022/01/16 11:25:58;;;;;;;79.82;25.63;;;;;;;2.06;100.00;101393.16;5031522;28;20056;-79
2022/01/16 11:28:24;;;;;;;88.22;26.58;;;;;;;2.11;100.00;101406.91;5028010;28;20111;-79
2022/01/16 11:30:56;;;;;;;90.40;26.13;;;;;;;2.25;100.00;101418.41;5033182;28;20553;-79
2022/01/16 11:33:24;;;;;;;93.07;27.77;;;;;;;2.21;100.00;101412.47;5048643;28;20051;-79
2022/01/16 11:35:57;;;;;;;87.30;26.23;;;;;;;2.15;100.00;101385.63;5041476;28;20462;-79
2022/01/16 11:38:27;;;;;;;88.00;25.00;;;;;;;2.22;100.00;101402.75;5041156;28;20038;-78
2022/01/16 11:40:53;;;;;;;88.28;27.23;;;;;;;2.13;100.00;101398.91;5048610;28;20065;-79
2022/01/16 11:43:30;;;;;;;92.43;25.83;;;;;;;2.16;100.00;101382.91;5043768;28;20079;-78
2022/01/16 11:46:10;;;;;;;91.82;27.92;;;;;;;2.15;100.00;101390.91;5023895;28;20451;-80